Time;durP1;ratioP1;P1;durP2;ratioP2;P2;SDS_P1;SDS_P2;PMS_P1;PMS_P2;Temp;Humidity;BMP_temperature;BMP_pressure;BME280_temperature;BME280_humidity;BME280_pressure;Samples;Min_cycle;Max_cycle;Signal;HPM_P1;HPM_P2
2022/03/01 00:00:23;;;;;;;7.30;4.30;;;15.60;72.10;;;;;;2022025;28;20235;-78
2022/03/01 00:01:21;;;;;;;7.80;5.07;;;15.50;72.00;;;;;;2021089;28;20222;-77
2022/03/01 00:02:20;;;;;;;5.53;4.10;;;15.50;72.00;;;;;;2021459;28;20167;-77
2022/03/01 00:03:18;;;;;;;7.07;3.73;;;15.50;71.90;;;;;;2021426;28;20637;-77
2022/03/01 00:04:17;;;;;;;5.80;4.20;;;15.50;72.10;;;;;;2021917;28;20237;-77
2022/03/01 00:05:16;;;;;;;6.40;4.30;;;15.50;72.00;;;;;;2021830;28;20394;-77
2022/03/01 00:06:15;;;;;;;7.03;4.00;;;15.50;71.90;;;;;;2021893;28;20210;-77
2022/03/01 00:07:13;;;;;;;7.00;4.63;;;15.50;72.00;;;;;;2021735;28;20691;-77
2022/03/01 00:08:12;;;;;;;5.67;4.20;;;15.50;71.80;;;;;;2021259;28;20163;-77
2022/03/01 00:09:10;;;;;;;7.67;4.43;;;15.50;71.90;;;;;;2021301;28;20206;-77
2022/03/01 00:10:09;;;;;;;9.60;4.50;;;15.50;72.00;;;;;;2021805;28;20578;-76
2022/03/01 00:11:08;;;;;;;6.55;4.35;;;15.60;72.40;;;;;;2022086;28;20222;-77
2022/03/01 00:12:07;;;;;;;7.63;4.53;;;15.50;72.00;;;;;;2021763;28;20207;-77
2022/03/01 00:13:07;;;;;;;7.68;4.75;;;15.50;72.30;;;;;;2021683;28;20281;-77
2022/03/01 00:14:06;;;;;;;7.05;4.25;;;15.50;71.70;;;;;;2021784;28;20626;-78
2022/03/01 00:15:05;;;;;;;7.97;4.67;;;15.50;71.90;;;;;;2021049;28;20179;-77
2022/03/01 00:16:04;;;;;;;8.77;5.25;;;15.50;72.30;;;;;;2021088;28;20176;-77
2022/03/01 00:17:03;;;;;;;6.90;4.53;;;15.50;72.20;;;;;;2021688;28;20647;-77
2022/03/01 00:18:02;;;;;;;11.23;5.10;;;15.50;72.10;;;;;;2021769;28;20402;-77
2022/03/01 00:19:01;;;;;;;5.60;3.93;;;15.60;72.10;;;;;;2021921;28;20410;-77
2022/03/01 00:19:59;;;;;;;6.50;4.33;;;15.40;72.10;;;;;;2021608;28;20688;-77
2022/03/01 00:20:58;;;;;;;5.87;4.00;;;15.50;71.70;;;;;;2021658;28;20962;-77
2022/03/01 00:21:58;;;;;;;5.70;4.73;;;15.60;72.10;;;;;;2021541;28;20398;-77
2022/03/01 00:22:56;;;;;;;8.05;4.65;;;15.50;72.20;;;;;;2021528;28;20245;-77
2022/03/01 00:23:55;;;;;;;5.30;3.93;;;15.50;72.10;;;;;;2021629;28;20164;-77
2022/03/01 00:24:54;;;;;;;5.35;3.78;;;15.50;73.00;;;;;;2021638;28;20164;-77
2022/03/01 00:25:53;;;;;;;6.83;3.90;;;15.50;72.00;;;;;;2021570;28;20257;-77
2022/03/01 00:26:51;;;;;;;6.73;3.97;;;15.40;72.10;;;;;;2021659;28;20254;-77
2022/03/01 00:27:50;;;;;;;8.23;4.93;;;15.50;72.10;;;;;;2021594;28;20180;-77
2022/03/01 00:28:48;;;;;;;8.87;5.00;;;15.40;72.10;;;;;;2021644;28;20171;-77
2022/03/01 00:29:47;;;;;;;8.07;4.33;;;15.40;72.20;;;;;;2021678;28;20653;-77
2022/03/01 00:30:45;;;;;;;8.00;4.30;;;15.40;72.10;;;;;;2021630;28;20213;-77
2022/03/01 00:31:44;;;;;;;10.10;5.00;;;15.40;72.30;;;;;;2020970;28;20172;-77
2022/03/01 00:32:43;;;;;;;7.80;4.63;;;15.40;72.30;;;;;;2021053;28;20195;-77
2022/03/01 00:33:41;;;;;;;6.17;3.87;;;15.40;72.10;;;;;;2021690;28;20175;-77
2022/03/01 00:34:40;;;;;;;7.03;4.33;;;15.40;72.00;;;;;;2021123;28;20545;-77
2022/03/01 00:35:38;;;;;;;5.60;4.10;;;15.40;72.20;;;;;;2021295;28;20171;-77
2022/03/01 00:36:37;;;;;;;8.17;4.27;;;15.40;72.10;;;;;;2020590;28;20180;-77
2022/03/01 00:37:35;;;;;;;7.73;4.07;;;15.40;72.10;;;;;;2021032;28;20631;-77
2022/03/01 00:38:34;;;;;;;10.47;4.37;;;15.50;72.20;;;;;;2021702;28;20194;-77
2022/03/01 00:39:33;;;;;;;8.60;4.87;;;15.40;71.90;;;;;;2020472;28;20175;-77
2022/03/01 00:40:31;;;;;;;5.17;3.90;;;15.40;72.10;;;;;;2020445;28;20290;-77
2022/03/01 00:41:30;;;;;;;7.50;4.10;;;15.40;72.20;;;;;;2021703;28;20171;-77
2022/03/01 00:42:29;;;;;;;7.68;4.80;;;15.40;72.40;;;;;;2021419;28;20171;-77
2022/03/01 00:43:28;;;;;;;7.40;4.40;;;15.50;72.60;;;;;;2021797;28;20168;-77
2022/03/01 00:44:26;;;;;;;7.00;4.53;;;15.40;72.00;;;;;;2021732;28;20639;-77
2022/03/01 00:45:25;;;;;;;7.37;4.20;;;15.40;72.10;;;;;;2021121;28;20176;-77
2022/03/01 00:46:26;;;;;;;7.43;4.70;;;15.40;72.10;;;;;;2021024;28;20176;-77
2022/03/01 00:47:25;;;;;;;5.30;4.13;;;15.40;71.90;;;;;;2021562;28;20167;-77
2022/03/01 00:48:23;;;;;;;5.50;3.93;;;15.40;72.20;;;;;;2021804;28;20653;-77
2022/03/01 00:49:22;;;;;;;7.53;3.60;;;15.40;72.00;;;;;;2021664;28;20179;-77
2022/03/01 00:50:20;;;;;;;8.87;4.20;;;15.40;72.10;;;;;;2021403;28;20174;-77
2022/03/01 00:51:19;;;;;;;6.03;4.63;;;15.40;72.30;;;;;;2021647;28;20474;-77
2022/03/01 00:52:18;;;;;;;6.80;4.60;;;15.50;72.40;;;;;;2021507;28;20180;-77
2022/03/01 00:53:16;;;;;;;6.90;4.87;;;15.40;72.20;;;;;;2021290;28;20550;-77
2022/03/01 00:54:15;;;;;;;5.03;3.83;;;15.40;72.30;;;;;;2021365;28;20175;-77
2022/03/01 00:55:15;;;;;;;5.93;4.00;;;15.40;72.20;;;;;;2021505;28;20897;-77
2022/03/01 00:56:13;;;;;;;6.65;3.97;;;15.40;72.40;;;;;;2021487;28;20229;-77
2022/03/01 00:57:12;;;;;;;7.10;4.00;;;15.40;72.40;;;;;;2021574;28;20184;-77
2022/03/01 00:58:11;;;;;;;5.50;4.03;;;15.40;72.20;;;;;;2021386;28;20190;-77
2022/03/01 00:59:09;;;;;;;6.60;4.20;;;15.30;72.30;;;;;;2021564;28;20172;-78
2022/03/01 01:00:09;;;;;;;7.30;4.77;;;15.40;72.00;;;;;;2021621;28;20214;-77
2022/03/01 01:01:08;;;;;;;7.18;4.20;;;15.40;72.20;;;;;;2021517;28;20261;-77
2022/03/01 01:02:07;;;;;;;6.20;4.37;;;15.30;72.20;;;;;;2021215;28;20179;-77
2022/03/01 01:03:05;;;;;;;5.90;4.53;;;15.30;72.20;;;;;;2021289;28;20199;-77
2022/03/01 01:04:04;;;;;;;8.50;5.10;;;15.30;72.20;;;;;;2020755;28;20207;-77
2022/03/01 01:05:02;;;;;;;6.23;3.93;;;15.40;72.00;;;;;;2020838;28;20172;-77
2022/03/01 01:06:02;;;;;;;6.20;4.67;;;15.40;72.30;;;;;;2021471;28;20221;-78
2022/03/01 01:07:00;;;;;;;8.48;4.65;;;15.40;72.40;;;;;;2021351;28;20171;-77
2022/03/01 01:07:59;;;;;;;6.03;3.67;;;15.30;72.10;;;;;;2021280;28;20199;-77
2022/03/01 01:08:57;;;;;;;8.20;4.30;;;15.30;72.20;;;;;;2021536;28;20615;-77
2022/03/01 01:09:56;;;;;;;6.30;4.13;;;15.40;72.10;;;;;;2021415;28;20200;-77
2022/03/01 01:10:54;;;;;;;7.27;4.20;;;15.40;72.60;;;;;;2021226;28;20170;-77
2022/03/01 01:11:53;;;;;;;7.13;4.43;;;15.40;72.50;;;;;;2021468;28;20262;-77
2022/03/01 01:12:52;;;;;;;7.53;4.20;;;15.40;72.50;;;;;;2020983;28;20191;-77
2022/03/01 01:13:50;;;;;;;7.77;4.17;;;15.40;72.40;;;;;;2021348;28;20537;-77
2022/03/01 01:14:49;;;;;;;8.30;4.20;;;15.40;72.40;;;;;;2021317;28;20179;-77
2022/03/01 01:15:48;;;;;;;8.13;4.93;;;15.40;72.40;;;;;;2021270;28;20176;-77
2022/03/01 01:16:47;;;;;;;7.00;4.97;;;15.40;72.40;;;;;;2021276;28;20191;-77
2022/03/01 01:17:46;;;;;;;5.03;3.40;;;15.40;72.40;;;;;;2021269;28;20179;-77
2022/03/01 01:18:44;;;;;;;9.52;4.60;;;15.30;72.60;;;;;;2021262;28;20171;-77
2022/03/01 01:19:43;;;;;;;9.43;4.93;;;15.30;72.40;;;;;;2021550;28;20176;-77
2022/03/01 01:20:42;;;;;;;5.50;3.80;;;15.30;72.50;;;;;;2021442;28;20210;-77
2022/03/01 01:22:59;;;;;;;10.45;4.63;;;15.30;72.60;;;;;;2004393;28;20201;-77
2022/03/01 01:23:58;;;;;;;6.90;4.20;;;15.30;72.70;;;;;;2017062;28;20187;-77
2022/03/01 01:24:56;;;;;;;6.67;4.30;;;15.30;72.70;;;;;;2021179;28;20207;-77
2022/03/01 01:25:55;;;;;;;7.20;4.70;;;15.30;72.60;;;;;;2020556;28;20179;-77
2022/03/01 01:26:54;;;;;;;6.20;3.90;;;15.30;72.40;;;;;;2020709;28;20203;-77
2022/03/01 01:27:58;;;;;;;9.50;4.80;;;15.30;72.60;;;;;;2021184;28;20474;-77
2022/03/01 01:28:56;;;;;;;6.30;4.20;;;15.30;72.70;;;;;;2021506;28;20823;-77
2022/03/01 01:29:55;;;;;;;7.43;4.00;;;15.30;72.70;;;;;;2021239;28;20188;-77
2022/03/01 01:30:55;;;;;;;7.27;3.50;;;15.30;72.70;;;;;;2021217;28;20172;-77
2022/03/01 01:31:53;;;;;;;5.80;4.07;;;15.30;72.50;;;;;;2020631;28;20670;-78
2022/03/01 01:32:52;;;;;;;6.00;4.07;;;15.30;72.50;;;;;;2020841;28;20533;-77
2022/03/01 01:33:51;;;;;;;6.90;3.93;;;15.30;72.50;;;;;;2021456;28;20164;-77
2022/03/01 01:34:49;;;;;;;7.30;5.13;;;15.30;72.90;;;;;;2021449;28;20398;-77
2022/03/01 01:35:48;;;;;;;6.70;4.70;;;15.30;72.20;;;;;;2021281;28;20234;-78
2022/03/01 01:36:46;;;;;;;7.33;4.23;;;15.30;72.40;;;;;;2021322;28;20175;-75
2022/03/01 01:37:45;;;;;;;5.63;3.90;;;15.30;72.50;;;;;;2021324;28;20631;-76
2022/03/01 01:38:44;;;;;;;6.23;3.53;;;15.30;72.40;;;;;;2020540;28;20178;-76
2022/03/01 01:39:42;;;;;;;5.77;4.30;;;15.30;72.60;;;;;;2012682;28;20184;-76
2022/03/01 01:40:41;;;;;;;7.07;3.80;;;15.30;72.60;;;;;;2020147;28;20192;-77
2022/03/01 01:41:39;;;;;;;5.47;3.90;;;15.30;72.60;;;;;;2028174;28;20646;-76
2022/03/01 01:42:38;;;;;;;9.53;4.17;;;15.20;72.40;;;;;;2020448;28;20375;-77
2022/03/01 01:43:37;;;;;;;7.00;4.70;;;15.30;72.60;;;;;;2020738;28;20183;-77
2022/03/01 01:44:35;;;;;;;7.83;4.43;;;15.30;72.60;;;;;;2021157;28;20521;-76
2022/03/01 01:45:34;;;;;;;6.43;3.97;;;15.20;72.60;;;;;;2021181;28;20623;-76
2022/03/01 01:46:33;;;;;;;5.83;3.77;;;15.20;72.50;;;;;;2021159;28;20168;-76
2022/03/01 01:47:32;;;;;;;10.43;4.30;;;15.30;72.80;;;;;;2021149;28;20410;-76
2022/03/01 01:48:31;;;;;;;7.53;4.27;;;15.30;72.70;;;;;;2020869;28;20504;-77
2022/03/01 01:49:29;;;;;;;5.03;3.57;;;15.30;72.80;;;;;;2021021;28;20233;-77
2022/03/01 01:50:31;;;;;;;6.17;4.30;;;15.30;72.90;;;;;;2021039;28;20172;-77
2022/03/01 01:51:30;;;;;;;8.27;4.55;;;15.30;73.00;;;;;;2020563;28;20207;-77
2022/03/01 01:52:28;;;;;;;6.83;4.20;;;15.20;72.80;;;;;;2020913;28;20229;-77
2022/03/01 01:53:27;;;;;;;6.87;4.20;;;15.20;72.80;;;;;;2020966;28;20164;-77
2022/03/01 01:54:25;;;;;;;6.07;3.73;;;15.20;72.80;;;;;;2020995;28;20171;-78
2022/03/01 01:55:26;;;;;;;8.87;5.97;;;15.20;72.80;;;;;;2021112;28;20533;-77
2022/03/01 01:56:25;;;;;;;5.80;4.25;;;15.20;72.90;;;;;;2021050;28;20164;-78
2022/03/01 01:57:24;;;;;;;7.40;4.60;;;15.20;72.60;;;;;;2020509;28;20188;-77
2022/03/01 01:58:23;;;;;;;6.90;4.80;;;15.20;72.70;;;;;;2020406;28;20168;-77
2022/03/01 01:59:21;;;;;;;7.10;4.40;;;15.20;72.80;;;;;;2020961;28;20221;-77
2022/03/01 02:00:20;;;;;;;6.00;3.93;;;15.20;72.50;;;;;;2020703;28;20203;-76
2022/03/01 02:01:18;;;;;;;9.80;4.00;;;15.30;72.70;;;;;;2021061;28;20627;-76
2022/03/01 02:02:23;;;;;;;5.40;3.90;;;15.20;72.70;;;;;;2021031;28;20235;-77
2022/03/01 02:03:21;;;;;;;5.70;4.10;;;15.20;72.90;;;;;;2021012;28;20160;-76
2022/03/01 02:04:20;;;;;;;6.13;4.40;;;15.20;72.90;;;;;;2021001;28;20562;-77
2022/03/01 02:05:19;;;;;;;6.10;4.20;;;15.20;72.70;;;;;;2020874;28;20637;-76
2022/03/01 02:06:18;;;;;;;8.03;4.80;;;15.20;72.80;;;;;;2020991;28;20873;-78
2022/03/01 02:07:17;;;;;;;5.47;3.60;;;15.20;72.60;;;;;;2020895;28;20441;-76
2022/03/01 02:08:15;;;;;;;5.70;4.07;;;15.20;72.90;;;;;;2020772;28;20619;-76
2022/03/01 02:09:14;;;;;;;5.37;3.40;;;15.20;72.80;;;;;;2020827;28;20203;-77
2022/03/01 02:10:12;;;;;;;6.63;4.40;;;15.30;72.90;;;;;;2020844;28;20175;-76
2022/03/01 02:11:11;;;;;;;8.60;4.67;;;15.20;73.00;;;;;;2020874;28;20618;-76
2022/03/01 02:12:10;;;;;;;6.17;4.30;;;15.20;72.80;;;;;;2020722;28;20176;-76
2022/03/01 02:13:08;;;;;;;7.27;4.53;;;15.20;72.80;;;;;;2020709;28;20207;-76
2022/03/01 02:14:07;;;;;;;9.70;4.57;;;15.20;72.80;;;;;;2020193;28;20480;-76
2022/03/01 02:15:06;;;;;;;7.07;3.90;;;15.20;73.00;;;;;;2020234;28;20218;-76
2022/03/01 02:16:05;;;;;;;6.70;4.32;;;15.30;73.20;;;;;;2020614;28;20218;-76
2022/03/01 02:17:06;;;;;;;5.50;3.80;;;15.20;72.60;;;;;;2019975;28;20285;-76
2022/03/01 02:18:04;;;;;;;6.60;4.40;;;15.30;73.00;;;;;;2020189;28;20171;-76
2022/03/01 02:19:12;;;;;;;7.87;3.77;;;15.30;72.90;;;;;;2020693;28;20682;-77
2022/03/01 02:20:19;;;;;;;5.55;3.97;;;15.20;72.90;;;;;;2020863;28;20623;-76
2022/03/01 02:21:17;;;;;;;5.50;4.13;;;15.30;73.20;;;;;;2020700;28;20195;-77
2022/03/01 02:22:17;;;;;;;5.60;3.90;;;15.20;72.80;;;;;;2020730;28;20167;-78
2022/03/01 02:23:15;;;;;;;7.05;4.53;;;15.30;73.00;;;;;;2020748;28;20266;-76
2022/03/01 02:24:14;;;;;;;6.87;4.27;;;15.30;72.60;;;;;;2020515;28;20171;-76
2022/03/01 02:25:14;;;;;;;10.20;4.53;;;15.30;73.00;;;;;;2020688;28;20168;-76
2022/03/01 02:26:12;;;;;;;7.03;4.57;;;15.30;72.60;;;;;;2020817;28;20168;-76
2022/03/01 02:27:11;;;;;;;5.77;4.30;;;15.20;72.80;;;;;;2020668;28;20645;-77
2022/03/01 02:28:09;;;;;;;6.67;4.17;;;15.30;72.60;;;;;;2020680;28;20187;-76
2022/03/01 02:29:08;;;;;;;6.70;3.93;;;15.20;72.40;;;;;;2020654;28;20576;-76
2022/03/01 02:30:09;;;;;;;7.20;3.77;;;15.20;72.60;;;;;;2020764;28;20179;-76
2022/03/01 02:31:08;;;;;;;7.13;5.40;;;15.30;73.20;;;;;;2020694;28;20417;-76
2022/03/01 02:32:08;;;;;;;4.80;3.73;;;15.20;72.60;;;;;;2020601;28;20214;-76
2022/03/01 02:33:07;;;;;;;7.63;3.60;;;15.20;73.10;;;;;;2020572;28;20687;-78
2022/03/01 02:34:06;;;;;;;6.33;4.23;;;15.20;72.80;;;;;;2020927;28;20180;-76
2022/03/01 02:35:05;;;;;;;3.87;3.47;;;15.20;73.10;;;;;;2020596;28;20179;-76
2022/03/01 02:36:04;;;;;;;5.65;3.35;;;15.20;72.80;;;;;;2020709;28;20406;-76
2022/03/01 02:37:03;;;;;;;4.95;3.85;;;15.20;73.00;;;;;;2019933;28;20183;-76
2022/03/01 02:38:02;;;;;;;7.93;4.43;;;15.30;73.00;;;;;;2020038;28;20171;-76
2022/03/01 02:39:02;;;;;;;6.27;4.40;;;15.20;72.90;;;;;;2020712;28;20410;-77
2022/03/01 02:40:02;;;;;;;7.00;4.45;;;15.20;72.80;;;;;;2020580;28;20464;-77
2022/03/01 02:41:00;;;;;;;6.97;4.65;;;15.10;72.70;;;;;;2020710;28;20176;-77
2022/03/01 02:41:59;;;;;;;9.20;4.87;;;15.10;72.60;;;;;;2020675;28;20243;-77
2022/03/01 02:42:58;;;;;;;7.03;4.07;;;15.20;72.80;;;;;;2019789;28;20678;-78
2022/03/01 02:43:56;;;;;;;5.23;4.13;;;15.20;72.80;;;;;;2020139;28;20720;-77
2022/03/01 02:44:55;;;;;;;5.80;4.27;;;15.20;72.90;;;;;;2020554;28;20159;-76
2022/03/01 02:45:54;;;;;;;5.13;4.07;;;15.20;72.80;;;;;;2020862;28;20253;-76
2022/03/01 02:46:52;;;;;;;8.13;4.72;;;15.10;72.80;;;;;;2020563;28;20172;-77
2022/03/01 02:47:53;;;;;;;5.40;3.60;;;15.10;72.80;;;;;;2020721;28;20627;-76
2022/03/01 02:48:51;;;;;;;6.53;4.53;;;15.10;72.90;;;;;;2020401;28;20172;-77
2022/03/01 02:49:50;;;;;;;6.10;4.07;;;15.10;73.00;;;;;;2020595;28;20206;-76
2022/03/01 02:50:49;;;;;;;7.80;4.63;;;15.20;73.00;;;;;;2020074;28;20674;-77
2022/03/01 02:51:48;;;;;;;6.63;4.35;;;15.10;72.90;;;;;;2020059;28;20228;-77
2022/03/01 02:52:47;;;;;;;6.63;4.53;;;15.10;73.00;;;;;;2020371;28;20199;-77
2022/03/01 02:53:45;;;;;;;4.20;3.67;;;15.10;72.60;;;;;;2020500;28;20183;-77
2022/03/01 02:54:44;;;;;;;8.50;4.60;;;15.10;72.90;;;;;;2020613;28;20207;-76
2022/03/01 02:55:43;;;;;;;6.83;4.70;;;15.10;72.70;;;;;;2020012;28;20179;-77
2022/03/01 02:56:42;;;;;;;9.38;4.20;;;15.20;72.90;;;;;;2011796;28;20544;-77
2022/03/01 02:57:41;;;;;;;5.67;4.00;;;15.10;72.80;;;;;;2019638;28;20187;-76
2022/03/01 02:58:40;;;;;;;9.10;4.72;;;15.10;72.70;;;;;;2020527;28;20543;-76
2022/03/01 02:59:39;;;;;;;6.13;4.40;;;15.00;72.60;;;;;;2020732;28;20175;-76
2022/03/01 03:00:38;;;;;;;6.50;4.17;;;15.10;72.90;;;;;;2020417;28;20195;-76
2022/03/01 03:01:36;;;;;;;7.43;4.15;;;15.10;73.20;;;;;;2020437;28;20651;-78
2022/03/01 03:02:35;;;;;;;7.93;4.27;;;15.10;72.80;;;;;;2020234;28;20198;-77
2022/03/01 03:03:34;;;;;;;7.30;4.60;;;15.10;73.10;;;;;;2019899;28;20171;-77
2022/03/01 03:04:33;;;;;;;8.20;4.80;;;15.10;73.20;;;;;;2020575;28;20254;-77
2022/03/01 03:05:31;;;;;;;5.83;3.80;;;15.00;72.90;;;;;;2020503;28;20406;-77
2022/03/01 03:06:30;;;;;;;5.50;3.97;;;15.00;73.00;;;;;;2020479;28;20309;-78
2022/03/01 03:07:28;;;;;;;7.03;4.67;;;15.00;73.20;;;;;;2020500;28;20248;-76
2022/03/01 03:08:27;;;;;;;6.73;4.37;;;15.10;73.20;;;;;;2020427;28;20273;-77
2022/03/01 03:09:26;;;;;;;5.73;3.93;;;15.00;73.00;;;;;;2020492;28;20176;-77
2022/03/01 03:10:24;;;;;;;5.47;4.13;;;15.00;73.30;;;;;;2020574;28;20175;-77
2022/03/01 03:11:23;;;;;;;5.47;4.37;;;15.10;73.20;;;;;;2020402;28;20180;-77
2022/03/01 03:12:22;;;;;;;7.20;4.30;;;15.10;73.00;;;;;;2020296;28;20182;-77
2022/03/01 03:13:21;;;;;;;7.77;4.77;;;15.10;73.10;;;;;;2020693;28;20175;-76
2022/03/01 03:14:19;;;;;;;4.87;3.57;;;15.20;73.50;;;;;;2020813;28;20406;-76
2022/03/01 03:15:18;;;;;;;4.87;3.57;;;15.10;73.40;;;;;;2019626;28;20274;-76
2022/03/01 03:16:17;;;;;;;5.23;4.10;;;15.00;73.30;;;;;;2019830;28;20993;-77
2022/03/01 03:17:15;;;;;;;6.93;4.57;;;15.10;73.20;;;;;;2020391;28;20263;-77
2022/03/01 03:18:14;;;;;;;9.43;4.80;;;15.10;73.20;;;;;;2020400;28;20255;-77
2022/03/01 03:19:15;;;;;;;5.57;3.78;;;15.00;73.20;;;;;;2019712;28;20183;-76
2022/03/01 03:20:13;;;;;;;8.45;4.88;;;15.00;73.30;;;;;;2019705;28;20234;-77
2022/03/01 03:21:12;;;;;;;8.73;4.03;;;15.00;73.30;;;;;;2027722;28;20652;-77
2022/03/01 03:22:11;;;;;;;5.57;4.30;;;15.10;73.30;;;;;;2019816;28;20203;-78
2022/03/01 03:23:09;;;;;;;5.40;3.97;;;15.10;73.30;;;;;;2019733;28;20206;-77
2022/03/01 03:24:08;;;;;;;5.80;4.33;;;15.00;73.50;;;;;;2020304;28;20160;-77
2022/03/01 03:25:07;;;;;;;5.67;3.93;;;15.00;73.10;;;;;;2020228;28;20406;-77
2022/03/01 03:26:06;;;;;;;6.50;4.55;;;15.10;74.00;;;;;;2020379;28;20164;-76
2022/03/01 03:27:05;;;;;;;5.30;3.73;;;15.00;73.20;;;;;;2020217;28;20634;-77
2022/03/01 03:28:04;;;;;;;6.90;4.50;;;15.10;73.70;;;;;;2020433;28;20313;-76
2022/03/01 03:29:08;;;;;;;7.67;4.60;;;15.00;73.40;;;;;;2020490;28;20196;-77
2022/03/01 03:30:08;;;;;;;6.65;4.45;;;15.00;73.60;;;;;;2020461;28;20158;-77
2022/03/01 03:31:07;;;;;;;4.75;3.63;;;15.00;74.40;;;;;;2020225;28;20171;-77
2022/03/01 03:32:07;;;;;;;5.30;4.30;;;15.10;73.30;;;;;;2020417;28;20221;-76
2022/03/01 03:33:05;;;;;;;6.60;4.25;;;15.10;73.60;;;;;;2020379;28;20222;-77
2022/03/01 03:34:07;;;;;;;6.57;4.07;;;15.00;73.40;;;;;;2020459;28;20176;-77
2022/03/01 03:35:07;;;;;;;6.00;3.95;;;15.00;73.50;;;;;;2020231;28;20171;-77
2022/03/01 03:36:05;;;;;;;6.40;4.32;;;15.00;73.90;;;;;;2020377;28;20180;-76
2022/03/01 03:37:04;;;;;;;5.17;3.90;;;15.00;73.00;;;;;;2020336;28;20643;-77
2022/03/01 03:38:03;;;;;;;4.90;3.67;;;15.00;73.10;;;;;;2020437;28;20252;-77
2022/03/01 03:39:04;;;;;;;8.47;5.20;;;15.00;73.10;;;;;;2020544;28;20245;-77
2022/03/01 03:40:03;;;;;;;5.68;3.80;;;15.00;73.50;;;;;;2020248;28;20172;-77
2022/03/01 03:41:02;;;;;;;6.57;4.50;;;14.90;73.60;;;;;;2020401;28;20168;-76
2022/03/01 03:42:00;;;;;;;6.73;4.50;;;15.00;73.20;;;;;;2020410;28;20600;-78
2022/03/01 03:42:59;;;;;;;6.87;4.27;;;14.90;73.10;;;;;;2020126;28;20230;-77
2022/03/01 03:44:01;;;;;;;7.43;4.20;;;15.00;73.40;;;;;;2020325;28;20322;-78
2022/03/01 03:45:00;;;;;;;8.65;4.20;;;14.90;73.80;;;;;;2020417;28;20172;-77
2022/03/01 03:45:59;;;;;;;5.20;3.73;;;14.90;73.30;;;;;;2020448;28;20178;-77
2022/03/01 03:46:57;;;;;;;5.80;4.27;;;15.00;73.10;;;;;;2020502;28;20505;-77
2022/03/01 03:47:56;;;;;;;6.60;4.43;;;14.90;73.00;;;;;;2020223;28;20504;-76
2022/03/01 03:48:54;;;;;;;4.83;3.93;;;14.90;73.00;;;;;;2020279;28;20225;-77
2022/03/01 03:49:53;;;;;;;6.97;4.03;;;15.00;73.20;;;;;;2020669;28;20234;-77
2022/03/01 03:50:52;;;;;;;7.00;4.20;;;14.90;73.00;;;;;;2020425;28;20174;-77
2022/03/01 03:51:50;;;;;;;5.83;4.27;;;14.90;73.40;;;;;;2020449;28;20168;-77
2022/03/01 03:52:49;;;;;;;4.63;3.63;;;14.90;73.10;;;;;;2020328;28;20206;-77
2022/03/01 03:53:47;;;;;;;7.40;4.20;;;14.90;73.30;;;;;;2020273;28;20290;-77
2022/03/01 03:54:46;;;;;;;6.83;4.27;;;14.90;73.40;;;;;;2020416;28;20176;-77
2022/03/01 03:55:44;;;;;;;6.10;3.60;;;14.90;73.40;;;;;;2020562;28;20187;-77
2022/03/01 03:56:43;;;;;;;6.67;4.30;;;14.90;73.40;;;;;;2019601;28;20179;-77
2022/03/01 03:57:42;;;;;;;6.37;4.43;;;14.90;73.30;;;;;;2019700;28;20180;-77
2022/03/01 03:58:40;;;;;;;7.57;4.43;;;14.90;73.20;;;;;;2020313;28;20191;-77
2022/03/01 03:59:39;;;;;;;6.17;3.80;;;14.90;73.20;;;;;;2020369;28;20225;-77
2022/03/01 04:00:38;;;;;;;9.60;4.23;;;14.90;73.20;;;;;;2020249;28;20370;-77
2022/03/01 04:01:36;;;;;;;6.37;4.30;;;14.80;73.30;;;;;;2020286;28;20893;-77
2022/03/01 04:02:35;;;;;;;5.60;4.43;;;14.90;73.60;;;;;;2019517;28;20221;-77
2022/03/01 04:03:34;;;;;;;4.60;3.57;;;14.90;73.40;;;;;;2019757;28;20275;-77
2022/03/01 04:04:33;;;;;;;5.47;3.83;;;14.90;73.30;;;;;;2027294;28;20175;-78
2022/03/01 04:05:32;;;;;;;8.40;5.35;;;14.90;73.40;;;;;;2020757;28;20180;-77
2022/03/01 04:06:30;;;;;;;5.63;3.57;;;14.90;73.60;;;;;;2020268;28;20183;-77
2022/03/01 04:07:30;;;;;;;6.70;4.50;;;14.90;73.40;;;;;;2020330;28;20254;-77
2022/03/01 04:08:28;;;;;;;7.43;4.35;;;14.90;73.40;;;;;;2020318;28;20218;-77
2022/03/01 04:09:27;;;;;;;6.83;4.40;;;14.90;73.30;;;;;;2019578;28;20164;-77
2022/03/01 04:10:27;;;;;;;5.67;4.27;;;14.90;72.90;;;;;;2019672;28;20183;-76
2022/03/01 04:11:25;;;;;;;6.57;3.97;;;14.90;73.40;;;;;;2020304;28;20570;-77
2022/03/01 04:12:24;;;;;;;6.10;4.40;;;14.80;73.20;;;;;;2020181;28;20241;-77
2022/03/01 04:13:23;;;;;;;5.80;3.67;;;14.80;73.30;;;;;;2020263;28;20175;-77
2022/03/01 04:14:22;;;;;;;5.72;3.80;;;14.80;73.30;;;;;;2020553;28;20179;-77
2022/03/01 04:15:21;;;;;;;7.13;4.73;;;14.80;73.20;;;;;;2021768;28;20268;-77
2022/03/01 04:16:20;;;;;;;4.93;4.00;;;14.90;73.20;;;;;;2021681;28;20176;-75
2022/03/01 04:17:18;;;;;;;7.80;4.63;;;14.80;73.30;;;;;;2021653;28;20171;-77
2022/03/01 04:18:17;;;;;;;8.60;4.90;;;14.80;73.00;;;;;;2021607;28;20406;-77
2022/03/01 04:19:17;;;;;;;7.17;4.50;;;14.80;73.20;;;;;;2021772;28;20172;-77
2022/03/01 04:20:16;;;;;;;6.28;3.75;;;14.80;73.00;;;;;;2020955;28;20172;-76
2022/03/01 04:21:15;;;;;;;6.87;4.67;;;14.80;73.00;;;;;;2021260;28;20193;-77
2022/03/01 04:22:13;;;;;;;5.93;4.40;;;14.80;73.00;;;;;;2021416;28;20501;-77
2022/03/01 04:23:13;;;;;;;5.90;4.03;;;14.80;72.80;;;;;;2021659;28;20199;-77
2022/03/01 04:24:11;;;;;;;6.07;3.78;;;14.90;73.00;;;;;;2021087;28;20187;-76
2022/03/01 04:25:10;;;;;;;7.37;4.60;;;14.80;73.00;;;;;;2021113;28;20199;-76
2022/03/01 04:26:09;;;;;;;5.93;4.20;;;14.80;73.00;;;;;;2021589;28;20167;-77
2022/03/01 04:27:07;;;;;;;7.33;4.77;;;14.80;73.00;;;;;;2021623;28;20171;-77
2022/03/01 04:28:06;;;;;;;5.27;4.00;;;14.80;73.00;;;;;;2021709;28;20249;-77
2022/03/01 04:29:05;;;;;;;6.67;3.90;;;14.80;73.10;;;;;;2021677;28;20635;-77
2022/03/01 04:30:04;;;;;;;8.43;4.60;;;14.80;72.80;;;;;;2021728;28;20425;-77
2022/03/01 04:31:03;;;;;;;7.15;4.10;;;14.90;73.80;;;;;;2021580;28;20178;-77
2022/03/01 04:32:02;;;;;;;7.93;4.73;;;14.80;73.00;;;;;;2021717;28;20254;-77
2022/03/01 04:33:01;;;;;;;10.98;4.65;;;14.90;73.60;;;;;;2021252;28;20191;-77
2022/03/01 04:34:00;;;;;;;5.70;3.88;;;14.80;73.30;;;;;;2021644;28;20595;-77
2022/03/01 04:34:58;;;;;;;7.27;4.43;;;14.80;73.00;;;;;;2021714;28;20176;-77
2022/03/01 04:36:02;;;;;;;7.43;4.10;;;14.80;73.00;;;;;;2021531;28;20176;-77
2022/03/01 04:37:01;;;;;;;6.22;4.53;;;14.80;73.00;;;;;;2021621;28;20156;-77
2022/03/01 04:37:59;;;;;;;6.87;4.40;;;14.90;73.20;;;;;;2021706;28;20171;-77
2022/03/01 04:38:58;;;;;;;6.13;3.87;;;14.80;72.90;;;;;;2021691;28;20164;-77
2022/03/01 04:39:56;;;;;;;10.33;5.03;;;14.80;72.90;;;;;;2021619;28;20662;-78
2022/03/01 04:40:56;;;;;;;8.70;5.10;;;14.80;73.10;;;;;;2020726;28;20236;-78
2022/03/01 04:41:56;;;;;;;7.35;4.80;;;14.80;73.00;;;;;;2020933;28;20171;-75
2022/03/01 04:42:54;;;;;;;5.57;4.18;;;14.70;73.10;;;;;;2020263;28;20219;-76
2022/03/01 04:43:53;;;;;;;8.10;4.40;;;14.70;73.70;;;;;;2021119;28;20226;-76
2022/03/01 04:44:52;;;;;;;6.07;4.00;;;14.90;73.10;;;;;;2021465;28;20218;-76
2022/03/01 04:45:50;;;;;;;6.73;4.00;;;14.80;73.00;;;;;;2020833;28;20180;-76
2022/03/01 04:46:49;;;;;;;9.37;4.30;;;14.90;73.30;;;;;;2021006;28;20175;-76
2022/03/01 04:47:48;;;;;;;6.17;4.10;;;14.80;73.30;;;;;;2021648;28;20175;-76
2022/03/01 04:48:46;;;;;;;6.60;4.50;;;14.70;73.20;;;;;;2021566;28;20171;-76
2022/03/01 04:49:45;;;;;;;6.83;4.13;;;14.70;73.00;;;;;;2021382;28;20255;-76
2022/03/01 04:50:43;;;;;;;7.83;4.23;;;14.80;73.30;;;;;;2021474;28;20212;-76
2022/03/01 04:51:42;;;;;;;7.43;4.20;;;14.70;73.60;;;;;;2021478;28;20172;-76
2022/03/01 04:52:41;;;;;;;5.87;3.90;;;14.80;73.20;;;;;;2021336;28;20270;-77
2022/03/01 04:53:39;;;;;;;6.57;4.00;;;14.70;73.30;;;;;;2021391;28;20176;-77
2022/03/01 04:54:38;;;;;;;6.03;3.70;;;14.70;73.30;;;;;;2020653;28;20418;-76
2022/03/01 04:55:37;;;;;;;6.60;4.13;;;14.70;73.40;;;;;;2020708;28;20187;-77
2022/03/01 04:56:35;;;;;;;13.73;3.75;;;14.80;73.70;;;;;;2021217;28;20172;-76
2022/03/01 04:57:35;;;;;;;5.27;3.27;;;14.70;73.40;;;;;;2021424;28;20182;-76
2022/03/01 04:58:34;;;;;;;6.00;4.05;;;14.80;73.40;;;;;;2021284;28;20179;-76
2022/03/01 04:59:32;;;;;;;6.43;4.17;;;14.80;73.60;;;;;;2020683;28;20646;-76
2022/03/01 05:00:31;;;;;;;6.80;4.60;;;14.70;73.30;;;;;;2020592;28;20218;-77
2022/03/01 05:01:29;;;;;;;6.07;4.33;;;14.70;73.40;;;;;;2028224;28;20661;-76
2022/03/01 05:02:28;;;;;;;5.70;3.87;;;14.80;73.70;;;;;;2021719;28;20167;-76
2022/03/01 05:03:27;;;;;;;6.53;4.50;;;14.80;73.80;;;;;;2021318;28;20168;-77
2022/03/01 05:04:26;;;;;;;7.60;4.10;;;14.80;73.90;;;;;;2021384;28;20217;-77
2022/03/01 05:05:24;;;;;;;6.00;3.97;;;14.70;73.40;;;;;;2021236;28;20418;-77
2022/03/01 05:06:23;;;;;;;6.73;4.50;;;14.80;73.50;;;;;;2021172;28;20174;-77
2022/03/01 05:07:21;;;;;;;5.23;3.40;;;14.70;73.00;;;;;;2021269;28;20238;-77